Time;durP1;ratioP1;P1;durP2;ratioP2;P2;SDS_P1;SDS_P2;PMS_P1;PMS_P2;Temp;Humidity;BMP_temperature;BMP_pressure;BME280_temperature;BME280_humidity;BME280_pressure;Samples;Min_cycle;Max_cycle;Signal;HPM_P1;HPM_P2
2022/02/14 00:00:34;;;;;;;3.13;2.20;;;10.30;1.00;;;;;;5040039;28;20472;-77
2022/02/14 00:03:03;;;;;;;3.13;2.13;;;10.30;1.00;;;;;;5040608;28;21031;-77
2022/02/14 00:05:33;;;;;;;2.70;1.97;;;10.20;1.00;;;;;;5044866;28;20455;-76
2022/02/14 00:08:01;;;;;;;3.00;2.07;;;10.20;1.00;;;;;;5040203;28;20808;-76
2022/02/14 00:10:30;;;;;;;2.47;2.00;;;10.10;1.00;;;;;;5042365;28;20489;-77
2022/02/14 00:12:58;;;;;;;3.83;2.20;;;10.10;1.00;;;;;;5041228;28;20454;-76
2022/02/14 00:15:27;;;;;;;2.87;2.50;;;10.10;1.00;;;;;;5039605;28;20460;-76
2022/02/14 00:17:55;;;;;;;2.53;2.33;;;10.10;1.00;;;;;;5041774;28;20542;-77
2022/02/14 00:20:23;;;;;;;2.87;2.60;;;10.10;1.00;;;;;;5044119;28;20907;-76
2022/02/14 00:22:53;;;;;;;2.93;2.20;;;10.10;1.00;;;;;;5038175;28;20482;-76
2022/02/14 00:25:23;;;;;;;4.27;2.40;;;10.10;1.00;;;;;;5041242;28;20502;-76
2022/02/14 00:27:51;;;;;;;3.43;2.13;;;10.00;1.00;;;;;;5044481;28;20461;-77
2022/02/14 00:30:19;;;;;;;5.50;2.97;;;9.90;1.00;;;;;;5039767;28;20470;-77
2022/02/14 00:32:48;;;;;;;2.37;2.03;;;9.90;1.00;;;;;;5045292;28;20454;-77
2022/02/14 00:35:18;;;;;;;2.43;1.50;;;10.00;1.00;;;;;;5040824;28;20459;-77
2022/02/14 00:37:48;;;;;;;1.73;1.63;;;10.00;1.00;;;;;;5041948;28;20535;-76
2022/02/14 00:40:18;;;;;;;3.60;1.63;;;9.90;1.00;;;;;;5045788;28;20529;-76
2022/02/14 00:42:46;;;;;;;1.60;1.50;;;9.90;1.00;;;;;;5043122;28;20996;-76
2022/02/14 00:45:15;;;;;;;2.37;1.77;;;9.80;1.00;;;;;;5041401;28;20455;-77
2022/02/14 00:47:43;;;;;;;2.57;2.23;;;9.80;1.00;;;;;;5042913;28;20512;-77
2022/02/14 00:50:12;;;;;;;4.30;1.70;;;9.80;1.00;;;;;;5042101;28;20491;-77
2022/02/14 00:52:41;;;;;;;2.07;1.50;;;9.70;1.00;;;;;;5044009;28;20497;-77
2022/02/14 00:55:10;;;;;;;2.00;1.80;;;9.70;1.00;;;;;;5043205;28;20457;-76
2022/02/14 00:57:40;;;;;;;1.70;1.60;;;9.60;1.00;;;;;;5038779;28;20542;-76
2022/02/14 01:00:11;;;;;;;2.70;2.00;;;9.70;1.00;;;;;;5040933;28;20502;-77
2022/02/14 01:02:40;;;;;;;6.43;2.37;;;9.70;1.00;;;;;;5044772;28;21012;-77
2022/02/14 01:05:09;;;;;;;1.63;1.53;;;9.60;1.00;;;;;;5035608;28;20461;-77
2022/02/14 01:07:37;;;;;;;2.47;1.73;;;9.60;1.00;;;;;;5042936;28;20458;-75
2022/02/14 01:10:07;;;;;;;1.97;1.70;;;9.70;1.00;;;;;;5054451;28;20471;-76
2022/02/14 01:12:36;;;;;;;1.90;1.67;;;9.80;1.00;;;;;;5033105;28;20465;-76
2022/02/14 01:15:07;;;;;;;1.73;1.63;;;9.80;1.00;;;;;;5039094;28;20446;-76
2022/02/14 01:17:37;;;;;;;3.43;1.70;;;9.80;1.00;;;;;;5043463;28;20468;-76
2022/02/14 01:20:08;;;;;;;1.70;1.60;;;9.80;1.00;;;;;;5041471;28;20493;-78
2022/02/14 01:22:37;;;;;;;1.93;1.30;;;9.80;1.00;;;;;;5045196;28;20544;-77
2022/02/14 01:25:07;;;;;;;1.50;1.40;;;9.80;1.00;;;;;;5042351;28;20453;-77
2022/02/14 01:27:36;;;;;;;2.30;1.40;;;9.90;1.00;;;;;;5036445;28;20548;-77
2022/02/14 01:30:07;;;;;;;1.33;1.23;;;10.00;1.00;;;;;;5041584;28;20477;-77
2022/02/14 01:32:36;;;;;;;2.40;2.13;;;10.00;1.00;;;;;;5043203;28;20532;-76
2022/02/14 01:35:05;;;;;;;3.30;1.80;;;10.10;1.00;;;;;;5041333;28;20988;-77
2022/02/14 01:37:36;;;;;;;4.23;1.40;;;10.10;1.00;;;;;;5038215;28;20555;-76
2022/02/14 01:40:05;;;;;;;1.70;1.50;;;10.10;1.00;;;;;;5038077;28;20493;-76
2022/02/14 01:42:34;;;;;;;1.57;1.47;;;10.10;1.00;;;;;;5039859;28;20525;-77
2022/02/14 01:45:02;;;;;;;2.23;1.40;;;10.10;1.00;;;;;;5038140;28;20561;-76
2022/02/14 01:47:32;;;;;;;1.40;1.30;;;10.00;1.00;;;;;;5039343;28;20553;-76
2022/02/14 01:50:02;;;;;;;1.50;1.40;;;10.00;1.00;;;;;;5038078;28;20469;-77
2022/02/14 01:52:34;;;;;;;1.37;1.20;;;9.90;1.00;;;;;;5042192;28;23175;-77
2022/02/14 01:55:05;;;;;;;1.57;1.10;;;9.90;1.00;;;;;;5043450;28;20450;-78
2022/02/14 01:57:35;;;;;;;2.27;1.20;;;9.90;1.00;;;;;;5037701;28;20864;-77
2022/02/14 02:00:10;;;;;;;1.57;1.47;;;9.80;1.00;;;;;;5039296;28;20477;-77
2022/02/14 02:02:40;;;;;;;3.27;1.20;;;9.90;1.00;;;;;;5036116;28;20526;-77
2022/02/14 02:05:09;;;;;;;1.23;1.13;;;9.90;1.00;;;;;;5042125;28;20525;-77
2022/02/14 02:07:37;;;;;;;1.93;1.60;;;9.90;1.00;;;;;;5034200;28;20538;-77
2022/02/14 02:10:09;;;;;;;2.33;1.50;;;10.00;1.00;;;;;;5033561;28;20510;-77
2022/02/14 02:12:38;;;;;;;1.23;1.13;;;10.10;1.00;;;;;;5037353;28;21035;-78
2022/02/14 02:15:08;;;;;;;2.17;1.10;;;10.10;1.00;;;;;;5040816;28;20553;-77
2022/02/14 02:17:39;;;;;;;2.40;1.37;;;10.00;1.00;;;;;;5040255;28;20487;-78
2022/02/14 02:20:14;;;;;;;1.10;1.07;;;10.10;1.00;;;;;;5041885;28;20525;-77
2022/02/14 02:22:43;;;;;;;2.17;1.20;;;10.10;1.00;;;;;;5041865;28;20457;-77
2022/02/14 02:25:13;;;;;;;1.33;1.23;;;10.10;1.00;;;;;;5046109;28;20510;-76
2022/02/14 02:27:43;;;;;;;1.87;1.20;;;10.10;1.00;;;;;;5042152;28;20447;-76
2022/02/14 02:30:13;;;;;;;1.27;1.17;;;10.20;1.00;;;;;;5043451;28;20479;-76
2022/02/14 02:32:42;;;;;;;3.00;1.47;;;10.20;1.00;;;;;;5042359;28;20434;-76
2022/02/14 02:35:11;;;;;;;1.97;1.20;;;10.10;1.00;;;;;;5038866;28;20458;-76
2022/02/14 02:37:39;;;;;;;1.23;1.13;;;9.90;1.00;;;;;;5039129;28;20465;-77
2022/02/14 02:40:12;;;;;;;3.00;0.90;;;10.00;1.00;;;;;;5041214;28;20474;-76
2022/02/14 02:42:41;;;;;;;1.30;1.20;;;9.90;1.00;;;;;;5043610;28;20450;-77
2022/02/14 02:45:10;;;;;;;0.90;0.90;;;9.90;1.00;;;;;;5038064;28;20475;-76
2022/02/14 02:47:38;;;;;;;2.43;1.50;;;10.00;1.00;;;;;;5046200;28;20458;-76
2022/02/14 02:50:07;;;;;;;1.27;1.17;;;10.00;1.00;;;;;;5042591;28;20500;-77
2022/02/14 02:52:35;;;;;;;2.73;1.13;;;10.10;1.00;;;;;;5045759;28;20889;-77
2022/02/14 02:55:04;;;;;;;1.50;1.20;;;10.10;1.00;;;;;;5038392;28;21012;-77
2022/02/14 02:57:33;;;;;;;1.30;1.20;;;10.00;1.00;;;;;;5042033;28;20451;-77
2022/02/14 03:00:01;;;;;;;1.10;1.00;;;10.00;1.00;;;;;;5041627;28;20473;-76
2022/02/14 03:02:30;;;;;;;1.70;1.00;;;10.00;1.00;;;;;;5036710;28;20462;-77
2022/02/14 03:04:58;;;;;;;2.43;1.53;;;10.10;1.00;;;;;;5032153;28;20551;-77
2022/02/14 03:07:26;;;;;;;1.70;1.60;;;10.10;1.00;;;;;;5044302;28;20452;-76
2022/02/14 03:09:56;;;;;;;0.97;0.80;;;10.10;1.00;;;;;;5039282;28;21077;-77
2022/02/14 03:12:24;;;;;;;1.10;1.00;;;10.10;1.00;;;;;;5043829;28;20451;-78
2022/02/14 03:14:54;;;;;;;1.37;1.10;;;10.10;1.00;;;;;;5042779;28;20461;-78
2022/02/14 03:17:22;;;;;;;1.87;1.00;;;10.10;1.00;;;;;;5040031;28;20783;-77
2022/02/14 03:19:50;;;;;;;2.07;1.20;;;10.10;1.00;;;;;;5045467;28;20468;-77
2022/02/14 03:22:18;;;;;;;2.20;1.20;;;10.00;1.00;;;;;;5042103;28;20488;-77
2022/02/14 03:24:46;;;;;;;1.47;1.07;;;10.00;1.00;;;;;;5039950;28;20810;-77
2022/02/14 03:27:14;;;;;;;1.30;1.10;;;10.10;1.00;;;;;;5050026;28;20480;-78
2022/02/14 03:29:42;;;;;;;1.40;1.10;;;10.00;1.00;;;;;;5042152;28;20452;-77
2022/02/14 03:32:12;;;;;;;1.23;1.03;;;10.00;1.00;;;;;;5038317;28;20462;-77
2022/02/14 03:34:40;;;;;;;1.40;1.30;;;10.00;1.00;;;;;;5045227;28;20477;-78
2022/02/14 03:37:08;;;;;;;1.60;1.20;;;10.00;1.00;;;;;;5038966;28;20466;-78
2022/02/14 03:39:37;;;;;;;1.20;1.07;;;10.00;1.00;;;;;;5039858;28;21293;-77
2022/02/14 03:42:05;;;;;;;1.13;1.00;;;10.00;1.00;;;;;;5041785;28;20974;-77
2022/02/14 03:44:34;;;;;;;1.33;1.00;;;10.10;1.00;;;;;;5041432;28;20504;-77
2022/02/14 03:47:02;;;;;;;1.10;1.00;;;10.10;1.00;;;;;;5038084;28;20501;-77
2022/02/14 03:49:32;;;;;;;0.90;0.90;;;10.10;1.00;;;;;;5033404;28;20490;-77
2022/02/14 03:52:00;;;;;;;1.13;1.00;;;10.10;1.00;;;;;;5042832;28;20852;-78
2022/02/14 03:54:28;;;;;;;1.20;1.10;;;10.10;1.00;;;;;;5043462;28;20457;-77
2022/02/14 03:56:56;;;;;;;1.40;1.10;;;10.00;1.00;;;;;;5047771;28;20460;-77
2022/02/14 03:59:24;;;;;;;1.87;1.20;;;10.00;1.00;;;;;;5040091;28;20958;-77
2022/02/14 04:01:52;;;;;;;1.40;1.20;;;10.00;1.00;;;;;;5042776;28;20466;-77
2022/02/14 04:04:21;;;;;;;1.10;1.10;;;9.90;1.00;;;;;;5039723;28;21052;-77
2022/02/14 04:06:50;;;;;;;2.07;1.00;;;9.90;1.00;;;;;;5040941;28;20523;-77
2022/02/14 04:09:19;;;;;;;1.20;1.10;;;9.80;1.00;;;;;;5041412;28;20824;-78
2022/02/14 04:11:47;;;;;;;1.03;1.00;;;9.70;1.00;;;;;;5044483;28;20465;-77
2022/02/14 04:14:15;;;;;;;2.07;1.10;;;9.70;1.00;;;;;;5044506;28;20549;-77
2022/02/14 04:16:44;;;;;;;1.67;1.00;;;9.60;1.00;;;;;;5042148;28;20465;-77
2022/02/14 04:19:12;;;;;;;0.90;0.90;;;9.60;1.00;;;;;;5041702;28;20451;-77
2022/02/14 04:21:40;;;;;;;1.80;0.80;;;9.60;1.00;;;;;;5035679;28;20479;-77
2022/02/14 04:24:10;;;;;;;1.10;1.00;;;9.50;1.00;;;;;;5041541;28;20473;-76
2022/02/14 04:26:38;;;;;;;1.37;0.90;;;9.40;1.00;;;;;;5070626;28;20810;-77
2022/02/14 04:29:06;;;;;;;0.80;0.80;;;9.40;1.00;;;;;;5045103;28;20442;-77
2022/02/14 04:31:34;;;;;;;1.53;1.07;;;9.30;1.00;;;;;;5047960;28;20551;-77
2022/02/14 04:34:02;;;;;;;1.50;1.40;;;9.30;1.00;;;;;;5047678;28;20953;-77
2022/02/14 04:36:32;;;;;;;1.20;1.10;;;9.30;1.00;;;;;;5039846;28;20442;-77
2022/02/14 04:39:00;;;;;;;1.90;1.17;;;9.20;1.00;;;;;;5036392;28;20462;-77
2022/02/14 04:41:30;;;;;;;1.03;0.93;;;9.20;1.00;;;;;;5039694;28;20465;-76
2022/02/14 04:43:58;;;;;;;1.47;1.13;;;9.10;1.00;;;;;;5038874;28;20451;-76
2022/02/14 04:46:26;;;;;;;1.10;1.00;;;9.20;1.00;;;;;;5039021;28;20459;-76
2022/02/14 04:48:55;;;;;;;1.27;1.07;;;9.20;1.00;;;;;;5043350;28;20448;-77
2022/02/14 04:51:25;;;;;;;0.97;0.90;;;9.20;1.00;;;;;;5040705;28;20469;-76
2022/02/14 04:53:53;;;;;;;0.90;0.90;;;9.30;1.00;;;;;;5044510;28;20447;-76
2022/02/14 04:56:22;;;;;;;1.23;1.13;;;9.30;1.00;;;;;;5039481;28;20444;-77
2022/02/14 04:58:51;;;;;;;1.50;0.97;;;9.40;1.00;;;;;;5043471;28;20449;-77
2022/02/14 05:01:19;;;;;;;1.20;0.80;;;9.50;1.00;;;;;;5039354;28;20466;-77
2022/02/14 05:03:48;;;;;;;1.80;1.10;;;9.50;1.00;;;;;;5040319;28;20460;-76
2022/02/14 05:06:16;;;;;;;1.10;1.10;;;9.40;1.00;;;;;;5037939;28;20494;-77
2022/02/14 05:08:45;;;;;;;1.60;1.10;;;9.40;1.00;;;;;;5037888;28;20491;-76
2022/02/14 05:11:13;;;;;;;1.53;1.07;;;9.40;1.00;;;;;;5036005;28;20498;-76
2022/02/14 05:13:41;;;;;;;1.20;1.10;;;9.40;1.00;;;;;;5036442;28;20531;-76
2022/02/14 05:16:11;;;;;;;2.20;1.13;;;9.40;1.00;;;;;;5038847;28;20960;-76
2022/02/14 05:18:39;;;;;;;3.23;1.20;;;9.30;1.00;;;;;;5040785;28;20462;-77
2022/02/14 05:21:07;;;;;;;3.53;1.27;;;9.30;1.00;;;;;;5037666;28;20486;-75
2022/02/14 05:23:37;;;;;;;2.40;0.90;;;9.30;1.00;;;;;;5038210;28;21159;-76
2022/02/14 05:26:07;;;;;;;0.97;0.97;;;9.40;1.00;;;;;;5044054;28;20469;-77
2022/02/14 05:28:35;;;;;;;1.20;1.10;;;9.40;1.00;;;;;;5040719;28;20524;-77
2022/02/14 05:31:03;;;;;;;1.40;0.97;;;9.40;1.00;;;;;;5041785;28;20992;-77
2022/02/14 05:33:33;;;;;;;2.70;1.10;;;9.30;1.00;;;;;;5040469;28;20541;-75
2022/02/14 05:36:01;;;;;;;1.40;1.30;;;9.40;1.00;;;;;;5037864;28;20536;-76
2022/02/14 05:38:29;;;;;;;1.13;0.97;;;9.40;1.00;;;;;;5040109;28;20999;-78
2022/02/14 05:40:58;;;;;;;1.63;1.40;;;9.40;1.00;;;;;;5041312;28;20559;-76
2022/02/14 05:43:26;;;;;;;5.13;0.93;;;9.40;1.00;;;;;;5038744;28;21281;-76
2022/02/14 05:45:54;;;;;;;3.03;1.70;;;9.50;1.00;;;;;;5035631;28;20477;-77
2022/02/14 05:48:26;;;;;;;1.30;1.10;;;9.50;1.00;;;;;;5035325;28;20547;-76
2022/02/14 05:50:56;;;;;;;1.50;1.20;;;9.50;1.00;;;;;;5047708;28;20807;-76
2022/02/14 05:53:24;;;;;;;1.27;1.00;;;9.40;1.00;;;;;;5040666;28;20435;-77
2022/02/14 05:55:52;;;;;;;3.00;1.10;;;9.40;1.00;;;;;;5036891;28;20459;-76
2022/02/14 05:58:21;;;;;;;1.23;1.07;;;9.50;1.00;;;;;;5039337;28;20845;-76
2022/02/14 06:00:49;;;;;;;1.97;1.00;;;9.50;1.00;;;;;;5043181;28;21202;-77
2022/02/14 06:03:17;;;;;;;1.23;1.17;;;9.40;1.00;;;;;;5037412;28;20541;-76
2022/02/14 06:05:45;;;;;;;2.20;1.23;;;9.20;1.00;;;;;;5034868;28;20477;-75
2022/02/14 06:08:15;;;;;;;1.63;1.07;;;9.10;1.00;;;;;;5043530;28;20965;-76
2022/02/14 06:10:43;;;;;;;1.47;1.37;;;9.10;1.00;;;;;;5038338;28;21040;-75
2022/02/14 06:13:12;;;;;;;4.90;1.30;;;9.30;1.00;;;;;;5044426;28;20545;-75
2022/02/14 06:15:40;;;;;;;2.27;1.20;;;9.00;1.00;;;;;;5041854;28;20479;-76
2022/02/14 06:18:08;;;;;;;2.77;1.27;;;8.80;1.00;;;;;;5043096;28;20462;-75
2022/02/14 06:20:36;;;;;;;2.13;1.10;;;8.80;1.00;;;;;;5051888;28;20488;-75
2022/02/14 06:23:05;;;;;;;3.00;1.60;;;9.20;1.00;;;;;;5035878;28;20455;-76
2022/02/14 06:25:34;;;;;;;1.50;1.40;;;9.00;1.00;;;;;;5037234;28;20714;-76
2022/02/14 06:28:03;;;;;;;1.47;0.90;;;8.90;1.00;;;;;;5038327;28;20466;-76
2022/02/14 06:30:32;;;;;;;1.37;1.27;;;9.00;1.00;;;;;;5044872;28;20491;-77
2022/02/14 06:33:00;;;;;;;1.73;1.20;;;8.90;1.00;;;;;;5042456;28;20451;-77
2022/02/14 06:35:29;;;;;;;3.03;1.00;;;8.80;1.00;;;;;;5038800;28;20465;-77
2022/02/14 06:37:57;;;;;;;2.23;1.10;;;9.00;1.00;;;;;;5034512;28;20455;-77
2022/02/14 06:40:26;;;;;;;1.60;1.17;;;8.90;1.00;;;;;;5042899;28;21081;-77
2022/02/14 06:42:55;;;;;;;1.97;1.20;;;9.00;1.00;;;;;;5044002;28;20471;-77
2022/02/14 06:45:24;;;;;;;1.93;1.40;;;9.00;1.00;;;;;;5055521;28;20485;-77
2022/02/14 06:47:53;;;;;;;2.60;1.40;;;9.20;1.00;;;;;;5041091;28;20450;-75
2022/02/14 06:50:22;;;;;;;1.83;1.20;;;9.20;1.00;;;;;;5040928;28;20554;-76
2022/02/14 06:52:50;;;;;;;2.30;1.70;;;9.00;1.00;;;;;;5041373;28;20555;-76
2022/02/14 06:55:18;;;;;;;1.30;1.10;;;9.20;1.00;;;;;;5040944;28;20458;-78
2022/02/14 06:57:47;;;;;;;1.60;1.50;;;9.20;1.00;;;;;;5037930;28;20501;-77
2022/02/14 07:00:17;;;;;;;4.17;2.10;;;9.40;1.00;;;;;;5042564;28;20561;-76
2022/02/14 07:02:45;;;;;;;2.13;1.60;;;9.40;1.00;;;;;;5037926;28;20461;-77
2022/02/14 07:05:16;;;;;;;2.10;1.27;;;9.40;1.00;;;;;;5051098;28;20475;-77
2022/02/14 07:07:44;;;;;;;1.60;1.50;;;9.30;1.00;;;;;;5042576;28;20455;-77
2022/02/14 07:10:14;;;;;;;1.30;1.20;;;9.30;1.00;;;;;;5078223;28;20588;-77
2022/02/14 07:12:43;;;;;;;2.03;1.47;;;9.30;1.00;;;;;;5040083;28;20463;-77
2022/02/14 07:15:12;;;;;;;2.60;1.30;;;9.20;1.00;;;;;;5043077;28;20458;-76
2022/02/14 07:17:43;;;;;;;2.53;1.30;;;9.10;1.00;;;;;;5039683;28;20499;-76
2022/02/14 07:20:12;;;;;;;1.60;1.27;;;9.00;1.00;;;;;;5046381;28;20475;-76
2022/02/14 07:22:41;;;;;;;4.50;1.30;;;9.10;1.00;;;;;;5041411;28;20557;-77
2022/02/14 07:25:10;;;;;;;1.63;1.33;;;9.30;1.00;;;;;;5045165;28;20560;-76
2022/02/14 07:27:39;;;;;;;1.67;1.03;;;9.20;1.00;;;;;;5048946;28;20857;-76
2022/02/14 07:30:10;;;;;;;1.47;1.17;;;9.30;1.00;;;;;;5045770;28;20555;-76
2022/02/14 07:32:39;;;;;;;1.63;1.20;;;9.20;1.00;;;;;;5046629;28;20960;-75
2022/02/14 07:35:10;;;;;;;1.50;1.40;;;9.20;1.00;;;;;;5050603;28;20481;-76
2022/02/14 07:37:39;;;;;;;1.80;1.10;;;9.10;1.00;;;;;;5042858;28;20501;-76
2022/02/14 07:40:09;;;;;;;3.93;1.43;;;8.90;1.00;;;;;;5045879;28;20486;-76
2022/02/14 07:42:38;;;;;;;4.10;1.80;;;8.90;1.00;;;;;;5041451;28;20888;-76
2022/02/14 07:45:08;;;;;;;1.53;1.43;;;8.80;1.00;;;;;;5040710;28;20583;-76
2022/02/14 07:47:37;;;;;;;3.80;1.30;;;8.90;1.00;;;;;;5042975;28;20502;-76
2022/02/14 07:50:11;;;;;;;2.77;1.40;;;9.00;1.00;;;;;;5045550;28;20477;-76
2022/02/14 07:52:40;;;;;;;3.43;1.20;;;9.00;1.00;;;;;;5040148;28;20451;-76
2022/02/14 07:55:09;;;;;;;1.73;1.10;;;9.10;1.00;;;;;;5045737;28;20548;-76
2022/02/14 07:57:37;;;;;;;2.37;1.30;;;9.20;1.00;;;;;;5041009;28;20461;-76
2022/02/14 08:00:07;;;;;;;1.40;1.20;;;9.40;1.00;;;;;;5044246;28;20530;-76
2022/02/14 08:02:36;;;;;;;1.50;1.20;;;9.60;1.00;;;;;;5044790;28;20229;-76
2022/02/14 08:05:05;;;;;;;1.80;1.47;;;9.70;1.00;;;;;;5044413;28;20542;-76
2022/02/14 08:07:35;;;;;;;2.53;1.30;;;9.80;1.00;;;;;;5041698;28;20629;-75
2022/02/14 08:10:24;;;;;;;1.30;1.00;;;10.10;1.00;;;;;;5042142;28;20459;-75
2022/02/14 08:12:52;;;;;;;1.60;1.33;;;10.10;1.00;;;;;;5043640;28;20459;-76
2022/02/14 08:15:21;;;;;;;3.33;1.57;;;10.20;1.00;;;;;;5041827;28;20460;-76
2022/02/14 08:17:51;;;;;;;2.00;1.37;;;10.20;1.00;;;;;;5044352;28;20540;-76
2022/02/14 08:20:19;;;;;;;1.30;1.20;;;10.20;1.00;;;;;;5043350;28;20481;-76
2022/02/14 08:22:50;;;;;;;8.47;1.57;;;10.20;1.00;;;;;;5043998;28;20459;-75
2022/02/14 08:25:18;;;;;;;4.10;1.20;;;10.20;1.00;;;;;;5042835;28;20899;-76
2022/02/14 08:27:46;;;;;;;1.40;1.30;;;10.50;1.00;;;;;;5039829;28;20574;-76
2022/02/14 08:30:15;;;;;;;1.70;1.20;;;10.50;1.00;;;;;;5048684;28;20474;-76
2022/02/14 08:32:44;;;;;;;2.90;1.20;;;10.60;1.00;;;;;;5044673;28;20455;-76
2022/02/14 08:35:16;;;;;;;4.60;1.40;;;10.50;1.00;;;;;;5049543;28;20463;-76
2022/02/14 08:37:45;;;;;;;4.60;1.20;;;10.50;1.00;;;;;;5040477;28;20460;-76
2022/02/14 08:40:16;;;;;;;2.60;1.33;;;10.70;1.00;;;;;;5044857;28;20483;-77
2022/02/14 08:42:44;;;;;;;3.53;1.10;;;11.00;1.00;;;;;;5041348;28;20988;-76
2022/02/14 08:45:13;;;;;;;1.93;1.37;;;11.20;1.00;;;;;;5040865;28;20554;-76
2022/02/14 08:47:43;;;;;;;4.00;1.70;;;11.40;1.00;;;;;;5036497;28;20574;-76
2022/02/14 08:50:11;;;;;;;1.73;1.10;;;11.30;1.00;;;;;;5041242;28;20578;-76
2022/02/14 08:52:40;;;;;;;1.47;1.27;;;11.30;1.00;;;;;;5041684;28;21018;-76
2022/02/14 08:55:09;;;;;;;1.07;1.07;;;11.40;1.00;;;;;;5040733;28;20692;-77
2022/02/14 08:57:39;;;;;;;4.73;1.40;;;11.30;1.00;;;;;;5042388;28;20455;-76
2022/02/14 09:00:09;;;;;;;1.93;1.20;;;11.20;1.00;;;;;;5043070;28;20600;-76
2022/02/14 09:02:38;;;;;;;3.53;1.27;;;11.50;1.00;;;;;;5038985;28;20506;-76
2022/02/14 09:05:07;;;;;;;3.60;2.07;;;11.80;1.00;;;;;;5042933;28;20490;-77
2022/02/14 09:07:36;;;;;;;4.20;1.10;;;12.20;1.50;;;;;;5041262;28;20468;-76
2022/02/14 09:10:05;;;;;;;1.77;1.07;;;12.60;7.10;;;;;;5039295;28;20527;-76
2022/02/14 09:12:34;;;;;;;2.03;1.20;;;12.90;7.80;;;;;;5041906;28;20485;-74
2022/02/14 09:15:05;;;;;;;1.40;1.30;;;13.00;8.30;;;;;;5074266;28;20204;-74
2022/02/14 09:17:33;;;;;;;1.70;1.30;;;13.30;13.60;;;;;;5035866;28;20457;-74
2022/02/14 09:20:02;;;;;;;2.03;1.40;;;13.50;14.80;;;;;;5046467;28;20477;-74
2022/02/14 09:22:30;;;;;;;1.67;1.30;;;13.70;15.50;;;;;;5040392;28;21042;-74
2022/02/14 09:24:59;;;;;;;2.87;1.37;;;13.80;17.10;;;;;;5041073;28;21186;-75
2022/02/14 09:27:27;;;;;;;3.40;1.33;;;13.90;18.50;;;;;;5039742;28;20972;-74
2022/02/14 09:29:55;;;;;;;2.85;1.77;;;13.90;17.70;;;;;;5039967;28;20528;-76
2022/02/14 09:32:26;;;;;;;4.90;1.63;;;13.80;15.80;;;;;;5043115;28;20258;-77
2022/02/14 09:34:54;;;;;;;2.60;1.57;;;13.40;12.80;;;;;;5042461;28;20455;-76
2022/02/14 09:37:22;;;;;;;1.47;1.33;;;13.00;8.40;;;;;;5042494;28;20563;-77
2022/02/14 09:39:51;;;;;;;4.10;1.40;;;12.80;7.60;;;;;;5042026;28;20492;-77
2022/02/14 09:42:20;;;;;;;2.70;1.10;;;12.70;6.20;;;;;;5075808;28;20451;-77
2022/02/14 09:44:53;;;;;;;2.37;1.60;;;12.60;6.70;;;;;;5040763;28;20470;-77
2022/02/14 09:47:26;;;;;;;6.80;1.30;;;12.60;7.00;;;;;;5053689;28;20832;-77
2022/02/14 09:49:55;;;;;;;2.00;1.60;;;12.50;6.10;;;;;;5042789;28;20884;-77
2022/02/14 09:52:24;;;;;;;1.53;1.27;;;12.40;5.80;;;;;;5041694;28;20538;-77
2022/02/14 09:54:52;;;;;;;4.07;1.43;;;12.20;3.60;;;;;;5037705;28;20857;-77
2022/02/14 09:57:20;;;;;;;1.83;1.27;;;12.20;4.60;;;;;;5041386;28;20944;-76
2022/02/14 09:59:49;;;;;;;1.87;1.70;;;12.00;3.10;;;;;;5039093;28;20486;-77
2022/02/14 10:02:24;;;;;;;3.73;1.60;;;12.00;3.20;;;;;;5040779;28;20679;-76
2022/02/14 10:05:08;;;;;;;1.43;1.33;;;11.90;2.40;;;;;;5040579;28;20459;-76
2022/02/14 10:07:45;;;;;;;1.40;1.30;;;12.00;4.30;;;;;;5040259;28;21229;-76
2022/02/14 10:10:17;;;;;;;3.20;1.30;;;12.10;5.10;;;;;;5042690;28;20528;-77
2022/02/14 10:12:47;;;;;;;2.00;1.43;;;12.30;6.80;;;;;;5037561;28;20460;-77
2022/02/14 10:15:17;;;;;;;1.87;1.27;;;12.20;7.30;;;;;;5039874;28;21026;-77
2022/02/14 10:17:48;;;;;;;2.43;1.60;;;12.40;8.20;;;;;;5038325;28;20839;-76
2022/02/14 10:20:21;;;;;;;1.30;1.20;;;12.40;8.40;;;;;;5043030;28;21003;-76
2022/02/14 10:22:58;;;;;;;3.57;1.20;;;12.30;7.40;;;;;;5036645;28;20565;-76
2022/02/14 10:25:29;;;;;;;3.97;1.10;;;12.30;8.30;;;;;;5038252;28;20650;-77
2022/02/14 10:28:20;;;;;;;1.63;1.00;;;12.20;9.50;;;;;;5040548;28;20815;-77
2022/02/14 10:31:00;;;;;;;1.67;1.00;;;12.20;9.10;;;;;;5039834;28;20469;-77
2022/02/14 10:33:50;;;;;;;4.03;1.30;;;12.10;9.20;;;;;;5040542;28;20942;-77
2022/02/14 10:36:31;;;;;;;1.30;0.90;;;12.10;9.70;;;;;;5040890;28;20809;-76
2022/02/14 10:39:07;;;;;;;1.80;1.60;;;12.30;12.60;;;;;;5038525;28;20476;-77
2022/02/14 10:41:36;;;;;;;6.73;1.40;;;12.40;13.70;;;;;;5039969;28;20623;-77
2022/02/14 10:44:10;;;;;;;3.13;1.00;;;12.30;24.30;;;;;;5042138;28;20488;-77
2022/02/14 10:46:39;;;;;;;1.20;1.20;;;12.50;14.90;;;;;;5040692;28;20994;-77
2022/02/14 10:49:09;;;;;;;1.30;0.90;;;12.70;17.60;;;;;;5041011;28;20494;-77
2022/02/14 10:52:02;;;;;;;1.30;1.00;;;12.80;18.50;;;;;;5045217;28;20523;-76
2022/02/14 10:54:36;;;;;;;2.80;1.10;;;13.10;20.30;;;;;;5043055;28;20871;-76
2022/02/14 10:57:05;;;;;;;2.03;1.87;;;13.10;21.90;;;;;;5045171;28;20488;-75
2022/02/14 10:59:33;;;;;;;1.43;0.90;;;13.30;24.10;;;;;;5041718;28;20463;-76
2022/02/14 11:02:05;;;;;;;1.10;1.00;;;13.20;22.50;;;;;;5043110;28;20814;-76
2022/02/14 11:04:34;;;;;;;3.67;1.47;;;13.20;23.80;;;;;;5044293;28;20534;-76
2022/02/14 11:07:04;;;;;;;2.33;1.17;;;13.40;24.70;;;;;;5043241;28;20458;-76
2022/02/14 11:09:33;;;;;;;1.47;1.10;;;13.50;24.90;;;;;;5042367;28;20498;-77
2022/02/14 11:12:02;;;;;;;1.43;1.10;;;13.60;26.00;;;;;;5040983;28;20654;-77
2022/02/14 11:14:31;;;;;;;2.57;1.20;;;13.80;27.90;;;;;;5043232;28;20480;-77
2022/02/14 11:17:01;;;;;;;1.87;1.20;;;13.60;26.30;;;;;;5054032;28;21032;-76
2022/02/14 11:19:30;;;;;;;2.90;1.10;;;13.40;25.60;;;;;;5052086;28;20464;-76
2022/02/14 11:22:03;;;;;;;0.90;0.90;;;13.30;25.60;;;;;;5043440;28;20462;-77
2022/02/14 11:24:39;;;;;;;0.90;0.90;;;13.20;24.40;;;;;;5043782;28;20445;-76
2022/02/14 11:27:12;;;;;;;1.57;0.90;;;13.10;24.10;;;;;;5048983;28;20473;-76
2022/02/14 11:29:53;;;;;;;4.10;1.10;;;12.80;21.90;;;;;;5049708;28;20572;-76
2022/02/14 11:32:24;;;;;;;4.43;1.57;;;12.80;21.80;;;;;;5048750;28;20463;-76
2022/02/14 11:35:01;;;;;;;1.10;0.90;;;12.50;20.30;;;;;;5044030;28;20448;-76
2022/02/14 11:37:51;;;;;;;2.10;1.30;;;12.50;21.20;;;;;;5038585;28;20543;-76
2022/02/14 11:40:49;;;;;;;3.43;1.73;;;12.30;20.60;;;;;;5041430;28;20490;-76
2022/02/14 11:43:22;;;;;;;2.30;1.17;;;12.50;21.30;;;;;;5042378;28;20452;-77
2022/02/14 11:46:18;;;;;;;0.90;0.87;;;12.60;23.20;;;;;;5038806;28;20503;-76
2022/02/14 11:48:52;;;;;;;3.07;1.03;;;12.50;22.30;;;;;;5044209;28;20826;-76
2022/02/14 11:51:24;;;;;;;2.03;1.10;;;12.40;22.30;;;;;;5040718;28;20918;-76
2022/02/14 11:53:53;;;;;;;2.40;1.00;;;12.40;23.30;;;;;;5044342;28;20535;-76
2022/02/14 11:56:32;;;;;;;4.30;1.10;;;12.50;23.30;;;;;;5045111;28;20452;-76
2022/02/14 11:59:17;;;;;;;1.07;0.90;;;12.50;23.90;;;;;;5042618;28;20535;-76
2022/02/14 12:02:05;;;;;;;1.60;0.80;;;12.60;25.10;;;;;;5038761;28;20468;-76
2022/02/14 12:04:46;;;;;;;2.60;0.97;;;12.80;27.20;;;;;;5042121;28;20470;-76
2022/02/14 12:07:34;;;;;;;1.70;1.37;;;13.00;29.60;;;;;;5041652;28;21026;-73
2022/02/14 12:10:22;;;;;;;1.50;0.80;;;13.10;34.80;;;;;;5043033;28;20486;-73
2022/02/14 12:13:13;;;;;;;1.23;0.90;;;13.30;38.80;;;;;;5039604;28;20449;-76
2022/02/14 12:21:32;;;;;;;0.80;0.80;;;13.20;36.30;;;;;;5040750;28;20486;-76
2022/02/14 12:24:16;;;;;;;1.50;1.03;;;13.10;34.50;;;;;;5044036;28;20971;-76
2022/02/14 12:26:55;;;;;;;3.23;0.83;;;13.10;35.60;;;;;;5041289;28;20565;-76
2022/02/14 12:29:35;;;;;;;2.60;1.13;;;13.20;36.00;;;;;;5043069;28;20485;-76
2022/02/14 12:32:09;;;;;;;1.93;1.17;;;13.30;38.50;;;;;;5055533;28;20457;-77
2022/02/14 12:34:38;;;;;;;1.67;0.83;;;13.40;39.40;;;;;;5047521;28;20817;-77
2022/02/14 12:37:08;;;;;;;1.13;1.03;;;13.30;39.30;;;;;;5042928;28;20804;-77
2022/02/14 12:39:40;;;;;;;1.73;1.63;;;13.20;38.10;;;;;;5040286;28;20766;-76
2022/02/14 12:42:19;;;;;;;0.80;0.70;;;13.50;44.10;;;;;;5053169;28;20793;-76
2022/02/14 12:44:49;;;;;;;0.80;0.80;;;13.80;46.80;;;;;;5040554;28;20458;-75
2022/02/14 12:47:19;;;;;;;1.00;0.90;;;13.90;47.60;;;;;;5042149;28;20479;-75
2022/02/14 12:50:11;;;;;;;3.30;1.23;;;13.90;48.40;;;;;;5038619;28;20476;-75
2022/02/14 12:52:43;;;;;;;1.47;1.37;;;14.10;49.20;;;;;;5043298;28;20520;-76
2022/02/14 12:55:13;;;;;;;1.77;1.20;;;14.20;50.00;;;;;;5045534;28;20450;-77
2022/02/14 12:57:45;;;;;;;5.87;0.87;;;13.90;44.40;;;;;;5042782;28;20451;-77
2022/02/14 13:00:38;;;;;;;1.43;1.00;;;13.80;44.80;;;;;;5042164;28;20490;-76
2022/02/14 13:03:10;;;;;;;1.90;0.93;;;13.50;42.10;;;;;;5039753;28;20981;-77
2022/02/14 13:05:39;;;;;;;1.43;0.90;;;13.70;43.80;;;;;;5043240;28;20465;-76
2022/02/14 13:08:18;;;;;;;0.97;0.80;;;13.50;44.50;;;;;;5038577;28;20458;-77
2022/02/14 13:10:47;;;;;;;1.10;0.90;;;13.60;43.90;;;;;;5039723;28;20492;-77
2022/02/14 13:13:29;;;;;;;1.23;0.80;;;13.40;43.20;;;;;;5039094;28;20600;-77
2022/02/14 13:16:04;;;;;;;1.27;0.60;;;13.20;42.30;;;;;;5041784;28;20462;-77
2022/02/14 13:18:40;;;;;;;0.97;0.80;;;13.40;44.40;;;;;;5038831;28;20457;-77
2022/02/14 13:21:09;;;;;;;0.80;0.80;;;13.40;45.40;;;;;;5041022;28;20489;-77
2022/02/14 13:23:37;;;;;;;0.80;0.73;;;13.60;48.00;;;;;;5041595;28;20506;-78